sensor_id;sensor_type;location;lat;lon;timestamp;P1;durP1;ratioP1;P2;durP2;ratioP2
39448;SDS011;25151;45.566;9.382;2023-09-12T00:02:05;4.05;;;3.65;;
39448;SDS011;25151;45.566;9.382;2023-09-12T00:04:35;6.70;;;3.72;;
39448;SDS011;25151;45.566;9.382;2023-09-12T00:07:05;6.22;;;3.97;;
39448;SDS011;25151;45.566;9.382;2023-09-12T00:09:35;4.45;;;3.40;;
39448;SDS011;25151;45.566;9.382;2023-09-12T00:12:02;5.55;;;4.18;;
39448;SDS011;25151;45.566;9.382;2023-09-12T00:14:29;4.65;;;4.15;;
39448;SDS011;25151;45.566;9.382;2023-09-12T00:17:02;5.25;;;4.00;;
39448;SDS011;25151;45.566;9.382;2023-09-12T00:19:31;6.13;;;4.25;;
39448;SDS011;25151;45.566;9.382;2023-09-12T00:21:58;3.63;;;3.08;;
39448;SDS011;25151;45.566;9.382;2023-09-12T00:24:25;4.75;;;3.80;;
39448;SDS011;25151;45.566;9.382;2023-09-12T00:26:53;5.43;;;3.92;;
39448;SDS011;25151;45.566;9.382;2023-09-12T00:39:26;3.70;;;3.40;;
39448;SDS011;25151;45.566;9.382;2023-09-12T00:41:53;4.35;;;3.90;;
39448;SDS011;25151;45.566;9.382;2023-09-12T00:44:20;6.22;;;3.67;;
39448;SDS011;25151;45.566;9.382;2023-09-12T00:46:47;6.10;;;3.92;;
39448;SDS011;25151;45.566;9.382;2023-09-12T00:49:16;6.57;;;4.47;;
39448;SDS011;25151;45.566;9.382;2023-09-12T00:51:47;5.15;;;4.18;;
39448;SDS011;25151;45.566;9.382;2023-09-12T00:54:18;5.28;;;3.80;;
39448;SDS011;25151;45.566;9.382;2023-09-12T00:56:45;5.32;;;3.55;;
39448;SDS011;25151;45.566;9.382;2023-09-12T00:59:13;6.78;;;3.97;;
39448;SDS011;25151;45.566;9.382;2023-09-12T01:01:41;5.15;;;4.10;;
39448;SDS011;25151;45.566;9.382;2023-09-12T01:04:11;5.57;;;4.30;;
39448;SDS011;25151;45.566;9.382;2023-09-12T01:06:38;4.53;;;3.63;;
39448;SDS011;25151;45.566;9.382;2023-09-12T01:09:11;6.38;;;4.07;;
39448;SDS011;25151;45.566;9.382;2023-09-12T01:11:41;4.45;;;3.53;;
39448;SDS011;25151;45.566;9.382;2023-09-12T01:14:08;5.05;;;4.15;;
39448;SDS011;25151;45.566;9.382;2023-09-12T01:16:35;3.85;;;3.30;;
39448;SDS011;25151;45.566;9.382;2023-09-12T01:19:11;5.70;;;4.15;;
39448;SDS011;25151;45.566;9.382;2023-09-12T01:21:54;6.85;;;4.47;;
39448;SDS011;25151;45.566;9.382;2023-09-12T01:27:38;5.38;;;4.00;;
39448;SDS011;25151;45.566;9.382;2023-09-12T01:30:11;4.18;;;3.72;;
39448;SDS011;25151;45.566;9.382;2023-09-12T01:32:42;5.13;;;4.10;;
39448;SDS011;25151;45.566;9.382;2023-09-12T01:35:12;5.07;;;3.83;;
39448;SDS011;25151;45.566;9.382;2023-09-12T01:37:42;4.18;;;3.78;;
39448;SDS011;25151;45.566;9.382;2023-09-12T01:40:09;4.55;;;3.88;;
39448;SDS011;25151;45.566;9.382;2023-09-12T01:42:42;5.03;;;3.92;;
39448;SDS011;25151;45.566;9.382;2023-09-12T01:45:13;5.55;;;3.95;;
39448;SDS011;25151;45.566;9.382;2023-09-12T01:47:42;4.00;;;3.55;;
39448;SDS011;25151;45.566;9.382;2023-09-12T01:50:13;4.78;;;3.78;;
39448;SDS011;25151;45.566;9.382;2023-09-12T01:52:44;4.90;;;3.67;;
39448;SDS011;25151;45.566;9.382;2023-09-12T01:55:12;4.75;;;3.95;;
39448;SDS011;25151;45.566;9.382;2023-09-12T01:57:40;5.10;;;4.60;;
39448;SDS011;25151;45.566;9.382;2023-09-12T02:00:07;5.90;;;4.00;;
39448;SDS011;25151;45.566;9.382;2023-09-12T02:02:35;4.18;;;3.65;;
39448;SDS011;25151;45.566;9.382;2023-09-12T02:05:10;4.25;;;3.85;;
39448;SDS011;25151;45.566;9.382;2023-09-12T02:07:41;5.20;;;4.45;;
39448;SDS011;25151;45.566;9.382;2023-09-12T02:10:08;6.38;;;4.40;;
39448;SDS011;25151;45.566;9.382;2023-09-12T02:12:35;4.95;;;3.92;;
39448;SDS011;25151;45.566;9.382;2023-09-12T02:15:02;4.60;;;3.97;;
39448;SDS011;25151;45.566;9.382;2023-09-12T02:17:29;4.95;;;4.13;;
39448;SDS011;25151;45.566;9.382;2023-09-12T02:19:57;5.05;;;4.55;;
39448;SDS011;25151;45.566;9.382;2023-09-12T02:22:24;5.65;;;4.63;;
39448;SDS011;25151;45.566;9.382;2023-09-12T02:24:51;4.30;;;3.95;;
39448;SDS011;25151;45.566;9.382;2023-09-12T02:27:18;5.25;;;4.28;;
39448;SDS011;25151;45.566;9.382;2023-09-12T02:29:48;5.85;;;3.78;;
39448;SDS011;25151;45.566;9.382;2023-09-12T02:32:17;4.78;;;4.28;;
39448;SDS011;25151;45.566;9.382;2023-09-12T02:34:44;4.13;;;3.60;;
39448;SDS011;25151;45.566;9.382;2023-09-12T02:37:11;4.38;;;3.97;;
39448;SDS011;25151;45.566;9.382;2023-09-12T02:39:41;4.20;;;3.78;;
39448;SDS011;25151;45.566;9.382;2023-09-12T02:42:11;4.90;;;4.40;;
39448;SDS011;25151;45.566;9.382;2023-09-12T02:44:41;4.80;;;4.13;;
39448;SDS011;25151;45.566;9.382;2023-09-12T02:47:11;4.30;;;3.90;;
39448;SDS011;25151;45.566;9.382;2023-09-12T02:49:38;4.95;;;4.38;;
39448;SDS011;25151;45.566;9.382;2023-09-12T02:52:05;4.57;;;3.90;;
39448;SDS011;25151;45.566;9.382;2023-09-12T02:54:34;6.32;;;4.45;;
39448;SDS011;25151;45.566;9.382;2023-09-12T02:57:04;4.38;;;3.97;;
39448;SDS011;25151;45.566;9.382;2023-09-12T02:59:31;4.95;;;3.92;;
39448;SDS011;25151;45.566;9.382;2023-09-12T03:02:03;4.45;;;3.75;;
39448;SDS011;25151;45.566;9.382;2023-09-12T03:04:34;5.05;;;4.55;;
39448;SDS011;25151;45.566;9.382;2023-09-12T03:07:04;4.47;;;4.07;;
39448;SDS011;25151;45.566;9.382;2023-09-12T03:09:33;4.57;;;4.18;;
39448;SDS011;25151;45.566;9.382;2023-09-12T03:12:03;4.32;;;3.92;;
39448;SDS011;25151;45.566;9.382;2023-09-12T03:14:30;5.35;;;3.88;;
39448;SDS011;25151;45.566;9.382;2023-09-12T03:16:57;4.50;;;4.10;;
39448;SDS011;25151;45.566;9.382;2023-09-12T03:19:24;6.22;;;4.15;;
39448;SDS011;25151;45.566;9.382;2023-09-12T03:21:54;8.55;;;4.20;;
39448;SDS011;25151;45.566;9.382;2023-09-12T03:24:21;4.43;;;4.00;;
39448;SDS011;25151;45.566;9.382;2023-09-12T03:26:54;4.25;;;3.85;;
39448;SDS011;25151;45.566;9.382;2023-09-12T03:29:23;5.47;;;4.55;;
39448;SDS011;25151;45.566;9.382;2023-09-12T03:31:51;4.80;;;4.03;;
39448;SDS011;25151;45.566;9.382;2023-09-12T03:34:24;5.05;;;4.13;;
39448;SDS011;25151;45.566;9.382;2023-09-12T03:36:56;5.35;;;4.45;;
39448;SDS011;25151;45.566;9.382;2023-09-12T03:39:25;5.15;;;4.20;;
39448;SDS011;25151;45.566;9.382;2023-09-12T03:41:55;4.32;;;3.85;;
39448;SDS011;25151;45.566;9.382;2023-09-12T03:44:27;5.03;;;4.30;;
39448;SDS011;25151;45.566;9.382;2023-09-12T03:46:55;5.63;;;4.55;;
39448;SDS011;25151;45.566;9.382;2023-09-12T03:49:27;4.95;;;4.20;;
39448;SDS011;25151;45.566;9.382;2023-09-12T03:51:53;4.95;;;4.32;;
39448;SDS011;25151;45.566;9.382;2023-09-12T03:54:23;4.95;;;4.38;;
39448;SDS011;25151;45.566;9.382;2023-09-12T03:56:56;4.50;;;4.10;;
39448;SDS011;25151;45.566;9.382;2023-09-12T03:59:28;4.60;;;4.03;;
39448;SDS011;25151;45.566;9.382;2023-09-12T04:01:58;5.38;;;4.68;;
39448;SDS011;25151;45.566;9.382;2023-09-12T04:04:25;4.90;;;4.15;;
39448;SDS011;25151;45.566;9.382;2023-09-12T04:06:54;5.53;;;4.60;;
39448;SDS011;25151;45.566;9.382;2023-09-12T04:09:24;4.93;;;4.43;;
39448;SDS011;25151;45.566;9.382;2023-09-12T04:11:53;5.05;;;4.55;;
39448;SDS011;25151;45.566;9.382;2023-09-12T04:14:28;4.97;;;4.47;;
39448;SDS011;25151;45.566;9.382;2023-09-12T04:17:03;5.00;;;4.30;;
39448;SDS011;25151;45.566;9.382;2023-09-12T04:19:34;7.13;;;4.63;;
39448;SDS011;25151;45.566;9.382;2023-09-12T04:22:01;4.82;;;4.00;;
39448;SDS011;25151;45.566;9.382;2023-09-12T04:24:32;8.18;;;4.32;;
39448;SDS011;25151;45.566;9.382;2023-09-12T04:26:59;5.43;;;4.40;;
39448;SDS011;25151;45.566;9.382;2023-09-12T04:29:26;5.68;;;4.75;;
39448;SDS011;25151;45.566;9.382;2023-09-12T04:31:53;5.72;;;5.07;;
39448;SDS011;25151;45.566;9.382;2023-09-12T04:34:27;4.68;;;3.95;;
39448;SDS011;25151;45.566;9.382;2023-09-12T04:36:56;5.53;;;4.88;;
39448;SDS011;25151;45.566;9.382;2023-09-12T04:39:23;5.28;;;4.78;;
39448;SDS011;25151;45.566;9.382;2023-09-12T04:41:50;7.25;;;4.82;;
39448;SDS011;25151;45.566;9.382;2023-09-12T04:44:17;4.95;;;4.45;;
39448;SDS011;25151;45.566;9.382;2023-09-12T04:46:45;5.25;;;3.95;;
39448;SDS011;25151;45.566;9.382;2023-09-12T04:49:12;5.20;;;4.57;;
39448;SDS011;25151;45.566;9.382;2023-09-12T04:51:40;5.63;;;4.40;;
39448;SDS011;25151;45.566;9.382;2023-09-12T04:54:11;7.30;;;4.35;;
39448;SDS011;25151;45.566;9.382;2023-09-12T04:56:38;5.40;;;4.22;;
39448;SDS011;25151;45.566;9.382;2023-09-12T04:59:08;6.72;;;4.75;;
39448;SDS011;25151;45.566;9.382;2023-09-12T05:01:38;5.65;;;4.30;;
39448;SDS011;25151;45.566;9.382;2023-09-12T05:06:35;5.93;;;4.80;;
39448;SDS011;25151;45.566;9.382;2023-09-12T05:09:03;5.75;;;5.15;;
39448;SDS011;25151;45.566;9.382;2023-09-12T05:11:34;6.75;;;4.20;;
39448;SDS011;25151;45.566;9.382;2023-09-12T05:14:04;4.85;;;4.30;;
39448;SDS011;25151;45.566;9.382;2023-09-12T05:16:33;5.57;;;4.78;;
39448;SDS011;25151;45.566;9.382;2023-09-12T05:19:03;7.13;;;5.00;;
39448;SDS011;25151;45.566;9.382;2023-09-12T05:21:36;5.13;;;4.15;;
39448;SDS011;25151;45.566;9.382;2023-09-12T05:24:08;6.93;;;4.57;;
39448;SDS011;25151;45.566;9.382;2023-09-12T05:26:42;6.47;;;4.43;;
39448;SDS011;25151;45.566;9.382;2023-09-12T05:29:15;5.03;;;4.53;;
39448;SDS011;25151;45.566;9.382;2023-09-12T05:31:45;6.70;;;4.68;;
39448;SDS011;25151;45.566;9.382;2023-09-12T05:34:15;6.82;;;4.60;;
39448;SDS011;25151;45.566;9.382;2023-09-12T05:36:47;4.75;;;4.22;;
39448;SDS011;25151;45.566;9.382;2023-09-12T05:39:17;7.05;;;5.47;;
39448;SDS011;25151;45.566;9.382;2023-09-12T05:41:45;7.22;;;4.80;;
39448;SDS011;25151;45.566;9.382;2023-09-12T05:44:18;5.07;;;4.35;;
39448;SDS011;25151;45.566;9.382;2023-09-12T05:46:46;6.35;;;4.55;;
39448;SDS011;25151;45.566;9.382;2023-09-12T05:49:16;6.55;;;4.40;;
39448;SDS011;25151;45.566;9.382;2023-09-12T05:51:49;5.97;;;4.50;;
39448;SDS011;25151;45.566;9.382;2023-09-12T05:54:19;8.68;;;4.47;;
39448;SDS011;25151;45.566;9.382;2023-09-12T05:56:47;5.57;;;4.95;;
39448;SDS011;25151;45.566;9.382;2023-09-12T05:59:20;5.53;;;4.50;;
39448;SDS011;25151;45.566;9.382;2023-09-12T06:01:56;6.35;;;4.43;;
39448;SDS011;25151;45.566;9.382;2023-09-12T06:04:26;4.75;;;3.85;;
39448;SDS011;25151;45.566;9.382;2023-09-12T06:06:56;5.22;;;4.70;;
39448;SDS011;25151;45.566;9.382;2023-09-12T06:09:33;7.32;;;4.53;;
39448;SDS011;25151;45.566;9.382;2023-09-12T06:12:00;7.38;;;4.57;;
39448;SDS011;25151;45.566;9.382;2023-09-12T06:14:27;8.10;;;4.43;;
39448;SDS011;25151;45.566;9.382;2023-09-12T06:16:58;5.82;;;4.20;;
39448;SDS011;25151;45.566;9.382;2023-09-12T06:19:28;8.05;;;5.13;;
39448;SDS011;25151;45.566;9.382;2023-09-12T06:21:55;7.15;;;4.50;;
39448;SDS011;25151;45.566;9.382;2023-09-12T06:24:28;7.65;;;4.65;;
39448;SDS011;25151;45.566;9.382;2023-09-12T06:27:06;7.18;;;4.68;;
39448;SDS011;25151;45.566;9.382;2023-09-12T06:29:34;7.28;;;4.50;;
39448;SDS011;25151;45.566;9.382;2023-09-12T06:32:04;8.95;;;4.88;;
39448;SDS011;25151;45.566;9.382;2023-09-12T06:34:39;6.82;;;4.47;;
39448;SDS011;25151;45.566;9.382;2023-09-12T06:37:11;8.45;;;4.75;;
39448;SDS011;25151;45.566;9.382;2023-09-12T06:39:44;7.30;;;4.60;;
39448;SDS011;25151;45.566;9.382;2023-09-12T06:42:26;6.13;;;4.15;;
39448;SDS011;25151;45.566;9.382;2023-09-12T06:44:56;7.93;;;5.03;;
39448;SDS011;25151;45.566;9.382;2023-09-12T06:47:31;9.13;;;4.90;;
39448;SDS011;25151;45.566;9.382;2023-09-12T06:49:58;8.90;;;3.75;;
39448;SDS011;25151;45.566;9.382;2023-09-12T06:52:31;11.05;;;4.47;;
39448;SDS011;25151;45.566;9.382;2023-09-12T06:55:04;6.45;;;4.70;;
39448;SDS011;25151;45.566;9.382;2023-09-12T06:57:34;10.02;;;4.15;;
39448;SDS011;25151;45.566;9.382;2023-09-12T07:00:03;7.50;;;4.60;;
39448;SDS011;25151;45.566;9.382;2023-09-12T07:02:36;6.75;;;4.35;;
39448;SDS011;25151;45.566;9.382;2023-09-12T07:05:03;5.90;;;4.40;;
39448;SDS011;25151;45.566;9.382;2023-09-12T07:07:33;7.82;;;4.32;;
39448;SDS011;25151;45.566;9.382;2023-09-12T07:09:59;5.75;;;4.55;;
39448;SDS011;25151;45.566;9.382;2023-09-12T07:12:29;7.93;;;4.60;;
39448;SDS011;25151;45.566;9.382;2023-09-12T07:15:00;10.00;;;4.93;;
39448;SDS011;25151;45.566;9.382;2023-09-12T07:17:30;7.60;;;4.15;;
39448;SDS011;25151;45.566;9.382;2023-09-12T07:19:59;9.95;;;4.82;;
39448;SDS011;25151;45.566;9.382;2023-09-12T07:22:29;9.65;;;4.65;;
39448;SDS011;25151;45.566;9.382;2023-09-12T07:24:59;6.90;;;4.50;;
39448;SDS011;25151;45.566;9.382;2023-09-12T07:27:27;5.90;;;3.97;;
39448;SDS011;25151;45.566;9.382;2023-09-12T07:29:58;6.25;;;4.45;;
39448;SDS011;25151;45.566;9.382;2023-09-12T07:32:25;6.15;;;4.78;;
39448;SDS011;25151;45.566;9.382;2023-09-12T07:34:54;7.32;;;5.00;;
39448;SDS011;25151;45.566;9.382;2023-09-12T07:37:26;8.05;;;4.97;;
39448;SDS011;25151;45.566;9.382;2023-09-12T07:39:57;8.07;;;4.65;;
39448;SDS011;25151;45.566;9.382;2023-09-12T07:42:25;6.57;;;5.10;;
39448;SDS011;25151;45.566;9.382;2023-09-12T07:44:52;7.55;;;5.03;;
39448;SDS011;25151;45.566;9.382;2023-09-12T07:47:19;6.60;;;4.70;;
39448;SDS011;25151;45.566;9.382;2023-09-12T07:49:52;6.60;;;4.22;;
39448;SDS011;25151;45.566;9.382;2023-09-12T07:52:19;6.30;;;4.80;;
39448;SDS011;25151;45.566;9.382;2023-09-12T07:54:49;6.78;;;4.47;;
39448;SDS011;25151;45.566;9.382;2023-09-12T07:57:25;4.93;;;4.43;;
39448;SDS011;25151;45.566;9.382;2023-09-12T07:59:53;6.55;;;4.25;;
39448;SDS011;25151;45.566;9.382;2023-09-12T08:02:28;5.35;;;4.18;;
39448;SDS011;25151;45.566;9.382;2023-09-12T08:05:05;7.40;;;5.10;;
39448;SDS011;25151;45.566;9.382;2023-09-12T08:07:33;6.65;;;4.38;;
39448;SDS011;25151;45.566;9.382;2023-09-12T08:10:03;7.10;;;4.95;;
39448;SDS011;25151;45.566;9.382;2023-09-12T08:12:31;8.38;;;4.88;;
39448;SDS011;25151;45.566;9.382;2023-09-12T08:15:00;8.68;;;4.32;;
39448;SDS011;25151;45.566;9.382;2023-09-12T08:17:31;6.75;;;4.47;;
39448;SDS011;25151;45.566;9.382;2023-09-12T08:20:05;5.43;;;4.80;;
39448;SDS011;25151;45.566;9.382;2023-09-12T08:22:40;10.55;;;4.70;;
39448;SDS011;25151;45.566;9.382;2023-09-12T08:25:06;8.18;;;4.40;;
39448;SDS011;25151;45.566;9.382;2023-09-12T08:27:40;5.70;;;4.60;;
39448;SDS011;25151;45.566;9.382;2023-09-12T08:30:10;6.70;;;4.95;;
39448;SDS011;25151;45.566;9.382;2023-09-12T08:32:37;8.45;;;4.20;;
39448;SDS011;25151;45.566;9.382;2023-09-12T08:35:09;7.28;;;4.63;;
39448;SDS011;25151;45.566;9.382;2023-09-12T08:37:38;8.38;;;4.85;;
39448;SDS011;25151;45.566;9.382;2023-09-12T08:40:11;6.57;;;4.47;;
39448;SDS011;25151;45.566;9.382;2023-09-12T08:42:43;9.23;;;4.22;;
39448;SDS011;25151;45.566;9.382;2023-09-12T08:45:17;6.68;;;5.35;;
39448;SDS011;25151;45.566;9.382;2023-09-12T08:47:52;11.27;;;4.88;;
39448;SDS011;25151;45.566;9.382;2023-09-12T08:50:20;9.32;;;4.20;;
39448;SDS011;25151;45.566;9.382;2023-09-12T08:52:48;4.65;;;4.07;;
39448;SDS011;25151;45.566;9.382;2023-09-12T08:55:16;7.28;;;4.88;;
39448;SDS011;25151;45.566;9.382;2023-09-12T08:57:47;6.03;;;4.70;;
39448;SDS011;25151;45.566;9.382;2023-09-12T09:00:26;5.68;;;4.22;;
39448;SDS011;25151;45.566;9.382;2023-09-12T09:02:56;7.00;;;4.65;;
39448;SDS011;25151;45.566;9.382;2023-09-12T09:05:28;7.45;;;4.70;;
39448;SDS011;25151;45.566;9.382;2023-09-12T09:07:58;8.52;;;5.03;;
39448;SDS011;25151;45.566;9.382;2023-09-12T09:10:28;7.88;;;4.65;;
39448;SDS011;25151;45.566;9.382;2023-09-12T09:12:58;5.72;;;4.38;;
39448;SDS011;25151;45.566;9.382;2023-09-12T09:15:26;8.80;;;4.18;;
39448;SDS011;25151;45.566;9.382;2023-09-12T09:17:54;6.55;;;4.47;;
39448;SDS011;25151;45.566;9.382;2023-09-12T09:20:30;8.27;;;4.80;;
39448;SDS011;25151;45.566;9.382;2023-09-12T09:23:07;6.20;;;4.35;;
39448;SDS011;25151;45.566;9.382;2023-09-12T09:25:45;7.53;;;4.82;;
39448;SDS011;25151;45.566;9.382;2023-09-12T09:28:21;8.20;;;4.93;;
39448;SDS011;25151;45.566;9.382;2023-09-12T09:30:52;7.95;;;4.70;;
39448;SDS011;25151;45.566;9.382;2023-09-12T09:33:20;5.63;;;4.53;;
39448;SDS011;25151;45.566;9.382;2023-09-12T09:36:01;5.78;;;4.55;;
39448;SDS011;25151;45.566;9.382;2023-09-12T09:38:36;5.60;;;4.22;;
39448;SDS011;25151;45.566;9.382;2023-09-12T09:41:06;10.35;;;4.80;;
39448;SDS011;25151;45.566;9.382;2023-09-12T09:43:35;4.72;;;3.90;;
39448;SDS011;25151;45.566;9.382;2023-09-12T09:48:39;6.15;;;4.50;;
39448;SDS011;25151;45.566;9.382;2023-09-12T09:51:22;8.02;;;4.40;;
39448;SDS011;25151;45.566;9.382;2023-09-12T09:53:55;5.80;;;4.25;;
39448;SDS011;25151;45.566;9.382;2023-09-12T09:56:28;5.80;;;5.13;;
39448;SDS011;25151;45.566;9.382;2023-09-12T09:59:01;6.38;;;4.43;;
39448;SDS011;25151;45.566;9.382;2023-09-12T10:01:30;8.37;;;4.43;;
39448;SDS011;25151;45.566;9.382;2023-09-12T10:04:01;10.32;;;5.70;;
39448;SDS011;25151;45.566;9.382;2023-09-12T10:06:30;6.75;;;5.20;;
39448;SDS011;25151;45.566;9.382;2023-09-12T10:09:09;11.55;;;4.88;;
39448;SDS011;25151;45.566;9.382;2023-09-12T10:11:46;7.63;;;4.65;;
39448;SDS011;25151;45.566;9.382;2023-09-12T10:14:18;6.72;;;4.30;;
39448;SDS011;25151;45.566;9.382;2023-09-12T10:16:47;5.88;;;4.15;;
39448;SDS011;25151;45.566;9.382;2023-09-12T10:24:55;6.47;;;4.57;;
39448;SDS011;25151;45.566;9.382;2023-09-12T10:27:26;8.52;;;4.40;;
39448;SDS011;25151;45.566;9.382;2023-09-12T10:29:58;5.82;;;4.10;;
39448;SDS011;25151;45.566;9.382;2023-09-12T10:32:30;8.15;;;4.90;;
39448;SDS011;25151;45.566;9.382;2023-09-12T10:35:01;6.15;;;4.60;;
39448;SDS011;25151;45.566;9.382;2023-09-12T10:37:31;6.97;;;4.57;;
39448;SDS011;25151;45.566;9.382;2023-09-12T10:40:08;5.50;;;4.22;;
39448;SDS011;25151;45.566;9.382;2023-09-12T10:42:44;5.65;;;4.45;;
39448;SDS011;25151;45.566;9.382;2023-09-12T10:45:13;6.30;;;4.40;;
39448;SDS011;25151;45.566;9.382;2023-09-12T10:47:43;5.45;;;4.18;;
39448;SDS011;25151;45.566;9.382;2023-09-12T10:50:15;5.50;;;4.40;;
39448;SDS011;25151;45.566;9.382;2023-09-12T10:52:49;5.85;;;4.32;;
39448;SDS011;25151;45.566;9.382;2023-09-12T10:55:21;5.80;;;4.28;;
39448;SDS011;25151;45.566;9.382;2023-09-12T10:58:04;5.22;;;4.70;;
39448;SDS011;25151;45.566;9.382;2023-09-12T11:00:44;6.63;;;4.28;;
39448;SDS011;25151;45.566;9.382;2023-09-12T11:03:47;6.55;;;4.80;;
39448;SDS011;25151;45.566;9.382;2023-09-12T11:11:44;7.22;;;4.65;;
39448;SDS011;25151;45.566;9.382;2023-09-12T11:14:15;7.13;;;4.45;;
39448;SDS011;25151;45.566;9.382;2023-09-12T11:19:48;8.40;;;4.75;;
39448;SDS011;25151;45.566;9.382;2023-09-12T11:22:34;7.53;;;5.22;;
39448;SDS011;25151;45.566;9.382;2023-09-12T11:25:26;6.00;;;4.63;;
39448;SDS011;25151;45.566;9.382;2023-09-12T11:30:26;8.93;;;4.95;;
39448;SDS011;25151;45.566;9.382;2023-09-12T11:33:03;6.03;;;4.40;;
39448;SDS011;25151;45.566;9.382;2023-09-12T11:35:38;7.68;;;4.22;;
39448;SDS011;25151;45.566;9.382;2023-09-12T11:38:09;6.30;;;4.35;;
39448;SDS011;25151;45.566;9.382;2023-09-12T11:43:08;8.98;;;4.18;;
39448;SDS011;25151;45.566;9.382;2023-09-12T11:45:45;8.43;;;4.35;;
39448;SDS011;25151;45.566;9.382;2023-09-12T11:48:16;7.55;;;4.20;;
39448;SDS011;25151;45.566;9.382;2023-09-12T11:50:48;10.25;;;5.32;;
39448;SDS011;25151;45.566;9.382;2023-09-12T11:53:22;9.35;;;4.35;;
39448;SDS011;25151;45.566;9.382;2023-09-12T11:56:01;5.53;;;4.28;;
39448;SDS011;25151;45.566;9.382;2023-09-12T11:58:34;8.63;;;4.25;;
39448;SDS011;25151;45.566;9.382;2023-09-12T12:01:06;5.53;;;4.15;;
39448;SDS011;25151;45.566;9.382;2023-09-12T12:03:37;6.70;;;4.60;;
39448;SDS011;25151;45.566;9.382;2023-09-12T12:06:10;5.70;;;3.97;;
39448;SDS011;25151;45.566;9.382;2023-09-12T12:08:39;6.30;;;4.35;;
39448;SDS011;25151;45.566;9.382;2023-09-12T12:11:07;5.68;;;4.05;;
39448;SDS011;25151;45.566;9.382;2023-09-12T12:13:37;6.07;;;4.35;;
39448;SDS011;25151;45.566;9.382;2023-09-12T12:16:14;6.75;;;5.25;;
39448;SDS011;25151;45.566;9.382;2023-09-12T12:18:46;6.35;;;4.97;;
39448;SDS011;25151;45.566;9.382;2023-09-12T12:21:22;5.47;;;4.07;;
39448;SDS011;25151;45.566;9.382;2023-09-12T12:24:02;8.27;;;4.55;;
39448;SDS011;25151;45.566;9.382;2023-09-12T12:26:33;6.57;;;4.57;;
39448;SDS011;25151;45.566;9.382;2023-09-12T12:29:11;5.95;;;4.13;;
39448;SDS011;25151;45.566;9.382;2023-09-12T12:31:41;6.75;;;4.28;;
39448;SDS011;25151;45.566;9.382;2023-09-12T12:34:10;5.03;;;4.47;;
39448;SDS011;25151;45.566;9.382;2023-09-12T12:36:41;7.57;;;3.92;;
39448;SDS011;25151;45.566;9.382;2023-09-12T12:39:10;5.07;;;4.32;;
39448;SDS011;25151;45.566;9.382;2023-09-12T12:41:42;4.57;;;4.13;;
39448;SDS011;25151;45.566;9.382;2023-09-12T12:44:15;6.10;;;4.32;;
39448;SDS011;25151;45.566;9.382;2023-09-12T12:46:47;5.85;;;4.10;;
39448;SDS011;25151;45.566;9.382;2023-09-12T12:49:16;5.47;;;4.63;;
39448;SDS011;25151;45.566;9.382;2023-09-12T12:51:48;5.10;;;4.03;;
39448;SDS011;25151;45.566;9.382;2023-09-12T12:56:48;6.95;;;4.05;;
39448;SDS011;25151;45.566;9.382;2023-09-12T12:59:18;4.43;;;3.72;;
39448;SDS011;25151;45.566;9.382;2023-09-12T13:01:47;4.05;;;3.65;;
39448;SDS011;25151;45.566;9.382;2023-09-12T13:04:20;5.32;;;4.25;;
39448;SDS011;25151;45.566;9.382;2023-09-12T13:06:53;6.97;;;4.65;;
39448;SDS011;25151;45.566;9.382;2023-09-12T13:09:23;4.50;;;3.97;;
39448;SDS011;25151;45.566;9.382;2023-09-12T13:11:50;7.20;;;3.80;;
39448;SDS011;25151;45.566;9.382;2023-09-12T13:14:18;5.65;;;3.83;;
39448;SDS011;25151;45.566;9.382;2023-09-12T13:16:55;4.68;;;3.75;;
39448;SDS011;25151;45.566;9.382;2023-09-12T13:19:22;5.28;;;4.05;;
39448;SDS011;25151;45.566;9.382;2023-09-12T13:21:51;4.90;;;3.40;;
39448;SDS011;25151;45.566;9.382;2023-09-12T13:24:20;4.10;;;3.40;;
39448;SDS011;25151;45.566;9.382;2023-09-12T13:26:49;4.60;;;3.50;;
39448;SDS011;25151;45.566;9.382;2023-09-12T13:29:20;4.18;;;3.80;;
39448;SDS011;25151;45.566;9.382;2023-09-12T13:31:50;5.78;;;3.65;;
39448;SDS011;25151;45.566;9.382;2023-09-12T13:34:17;4.10;;;3.70;;
39448;SDS011;25151;45.566;9.382;2023-09-12T13:36:44;5.18;;;4.00;;
39448;SDS011;25151;45.566;9.382;2023-09-12T13:39:13;3.88;;;3.47;;
39448;SDS011;25151;45.566;9.382;2023-09-12T13:41:42;4.15;;;3.75;;
39448;SDS011;25151;45.566;9.382;2023-09-12T13:44:15;7.10;;;3.75;;
39448;SDS011;25151;45.566;9.382;2023-09-12T13:46:44;4.82;;;3.90;;
39448;SDS011;25151;45.566;9.382;2023-09-12T13:49:13;5.70;;;3.67;;
39448;SDS011;25151;45.566;9.382;2023-09-12T13:51:39;4.18;;;3.33;;
39448;SDS011;25151;45.566;9.382;2023-09-12T13:54:11;3.72;;;3.42;;
39448;SDS011;25151;45.566;9.382;2023-09-12T13:56:41;6.22;;;3.50;;
39448;SDS011;25151;45.566;9.382;2023-09-12T13:59:16;4.57;;;3.88;;
39448;SDS011;25151;45.566;9.382;2023-09-12T14:01:48;3.90;;;3.42;;
39448;SDS011;25151;45.566;9.382;2023-09-12T14:04:15;4.05;;;3.60;;
39448;SDS011;25151;45.566;9.382;2023-09-12T14:06:45;3.92;;;3.50;;
39448;SDS011;25151;45.566;9.382;2023-09-12T14:09:12;4.43;;;3.92;;
39448;SDS011;25151;45.566;9.382;2023-09-12T14:11:40;3.92;;;3.50;;
39448;SDS011;25151;45.566;9.382;2023-09-12T14:14:10;4.90;;;3.97;;
39448;SDS011;25151;45.566;9.382;2023-09-12T14:16:41;4.75;;;3.22;;
39448;SDS011;25151;45.566;9.382;2023-09-12T14:19:14;3.97;;;3.58;;
39448;SDS011;25151;45.566;9.382;2023-09-12T14:21:41;4.03;;;3.63;;
39448;SDS011;25151;45.566;9.382;2023-09-12T14:24:11;3.70;;;3.30;;
39448;SDS011;25151;45.566;9.382;2023-09-12T14:26:44;4.47;;;3.38;;
39448;SDS011;25151;45.566;9.382;2023-09-12T14:29:11;4.68;;;3.42;;
39448;SDS011;25151;45.566;9.382;2023-09-12T14:31:38;4.55;;;3.50;;
39448;SDS011;25151;45.566;9.382;2023-09-12T14:34:05;6.80;;;3.90;;
39448;SDS011;25151;45.566;9.382;2023-09-12T14:36:33;4.53;;;3.50;;
39448;SDS011;25151;45.566;9.382;2023-09-12T14:39:03;4.93;;;4.00;;
39448;SDS011;25151;45.566;9.382;2023-09-12T14:41:29;3.85;;;3.22;;
39448;SDS011;25151;45.566;9.382;2023-09-12T14:44:01;4.18;;;3.50;;
39448;SDS011;25151;45.566;9.382;2023-09-12T14:46:30;4.28;;;3.67;;
39448;SDS011;25151;45.566;9.382;2023-09-12T14:48:56;3.53;;;3.20;;
39448;SDS011;25151;45.566;9.382;2023-09-12T14:51:25;4.25;;;3.80;;
39448;SDS011;25151;45.566;9.382;2023-09-12T14:53:52;4.15;;;3.75;;
39448;SDS011;25151;45.566;9.382;2023-09-12T14:56:19;3.67;;;3.35;;
39448;SDS011;25151;45.566;9.382;2023-09-12T14:58:51;3.72;;;3.33;;
39448;SDS011;25151;45.566;9.382;2023-09-12T15:01:23;3.45;;;3.15;;
39448;SDS011;25151;45.566;9.382;2023-09-12T15:03:55;6.78;;;3.72;;
39448;SDS011;25151;45.566;9.382;2023-09-12T15:06:25;3.97;;;3.47;;
39448;SDS011;25151;45.566;9.382;2023-09-12T15:08:58;5.88;;;3.50;;
39448;SDS011;25151;45.566;9.382;2023-09-12T15:11:28;4.38;;;3.90;;
39448;SDS011;25151;45.566;9.382;2023-09-12T15:13:58;4.20;;;3.80;;
39448;SDS011;25151;45.566;9.382;2023-09-12T15:16:26;6.13;;;3.72;;
39448;SDS011;25151;45.566;9.382;2023-09-12T15:19:00;4.68;;;3.45;;
39448;SDS011;25151;45.566;9.382;2023-09-12T15:21:31;3.40;;;3.10;;
39448;SDS011;25151;45.566;9.382;2023-09-12T15:26:28;3.90;;;3.55;;
39448;SDS011;25151;45.566;9.382;2023-09-12T15:28:56;4.07;;;3.53;;
39448;SDS011;25151;45.566;9.382;2023-09-12T15:31:26;4.78;;;3.10;;
39448;SDS011;25151;45.566;9.382;2023-09-12T15:33:54;3.95;;;3.35;;
39448;SDS011;25151;45.566;9.382;2023-09-12T15:36:26;3.28;;;2.97;;
39448;SDS011;25151;45.566;9.382;2023-09-12T15:38:59;3.75;;;3.40;;
39448;SDS011;25151;45.566;9.382;2023-09-12T15:41:26;3.70;;;3.13;;
39448;SDS011;25151;45.566;9.382;2023-09-12T15:43:56;5.00;;;3.33;;
39448;SDS011;25151;45.566;9.382;2023-09-12T15:46:28;3.45;;;3.13;;
39448;SDS011;25151;45.566;9.382;2023-09-12T15:48:55;3.92;;;3.53;;
39448;SDS011;25151;45.566;9.382;2023-09-12T15:51:24;5.18;;;3.60;;